Cleveland Hopkins International Airport
KCLE : now visible

Airfield :











YOU CAN JOIN US ON...

 
LOGIN :

Register | Disclaimer

   EN    FR    IT 

 









Legend :    VFR   Marginal VFR   IFR   Intensive IFR   Very Intensive IFR
Visi :
Ceiling :
>= 8 km
>= 3000ft
5 to 8 km
1000 to 3000 ft
1500m to 5 km
500 to 1000 ft
800 to 1500m
200 to 500 ft
< 800m
< 200 ft
Symbols :   Thunderstorms  Fog  Heavy snow  Heavy precipitations  Wind > 20 kt







- Airport Elevation : 791 ft
- IATA code : CLE


KCLE - Cleveland Hopkins International

CURRENT METAR :
  • 210551Z 01006KT 10SM OVC038 10/03 A3014 RMK AO2 SLP206 T01000033 10133 20089 51011

EXPIRED METARs :
  • 210525Z 03007KT 10SM OVC036 10/03 A3013 RMK AO2 T01000033
  • 210451Z 02010KT 10SM OVC025 10/04 A3014 RMK AO2 SLP205 T01000044 402000089
  • 210403Z 02012KT 10SM SCT009 BKN016 OVC022 09/07 A3013 RMK AO2 T00940067
  • 210351Z 02012KT 10SM OVC007 09/07 A3014 RMK AO2 SLP205 T00890072
  • 210318Z 03015KT 10SM BKN008 BKN014 OVC038 09/07 A3012 RMK AO2 T00940072

TAF KCLE
Valid from the 21 at 06:00 until the 22 at 12:00 UTC


210529Z 2106/2212 02009KT P6SM OVC025
TEMPO 2106/2107 SCT025
FM210700 36007KT P6SM SCT250
FM211200 36007KT P6SM BKN250
FM212200 02008KT P6SM BKN060
FM220300 08005KT P6SM SCT070
FM220800 11008KT P6SM BKN250
KZOB FIR / North America



MET'MAP, your aeronautical weather chart ! - Copyright ORBIFLY December 2007 - Disclaimer

ORBIFLY MET'MAP TEAM :

Programming & Development : Alexandra Zaïnal
Concept & Development : Baudouin d'Aumeries
Co-Development & Prog : Marc-Olivier Méhu
Technical & hardware support : Manuel Goepfert

Contact : metmap@orbifly.com




SOURCES & CREDITS :

   NOAA       Earth
Advisory